Time;durP1;ratioP1;P1;durP2;ratioP2;P2;SDS_P1;SDS_P2;PMS_P1;PMS_P2;Temp;Humidity;BMP_temperature;BMP_pressure;BME280_temperature;BME280_humidity;BME280_pressure;Samples;Min_cycle;Max_cycle;Signal;HPM_P1;HPM_P2
2023/09/13 00:01:11;;;;;;;6.57;5.97;;;;;;;20.14;60.03;95086.25;5055949;28;20538;-82
2023/09/13 00:03:37;;;;;;;6.60;5.10;;;;;;;20.09;59.59;95081.50;5055755;28;20451;-82
2023/09/13 00:06:06;;;;;;;6.10;4.57;;;;;;;20.09;59.90;95086.00;5055313;28;20438;-82
2023/09/13 00:08:33;;;;;;;4.90;3.93;;;;;;;20.08;60.48;95077.19;5055346;28;20694;-82
2023/09/13 00:11:03;;;;;;;5.87;4.27;;;;;;;20.12;60.52;95074.97;5052829;28;20465;-81
2023/09/13 00:13:30;;;;;;;5.77;4.43;;;;;;;20.07;59.75;95080.03;5055345;28;20555;-82
2023/09/13 00:15:57;;;;;;;6.63;4.67;;;;;;;20.11;60.38;95074.13;5019989;28;20456;-82
2023/09/13 00:18:24;;;;;;;8.17;5.30;;;;;;;20.10;60.62;95077.00;5055229;28;20447;-81
2023/09/13 00:20:53;;;;;;;5.57;4.37;;;;;;;20.10;60.69;95083.16;5055040;28;20445;-81
2023/09/13 00:23:21;;;;;;;15.00;5.70;;;;;;;20.01;61.21;95067.44;5055335;28;20524;-81
2023/09/13 00:25:48;;;;;;;5.83;4.27;;;;;;;19.96;60.82;95081.31;5055239;28;20448;-81
2023/09/13 00:28:14;;;;;;;6.43;4.97;;;;;;;19.88;61.58;95077.88;5055419;28;20517;-82
2023/09/13 00:30:41;;;;;;;6.93;5.10;;;;;;;19.82;61.78;95079.44;5054850;28;20877;-82
2023/09/13 00:33:08;;;;;;;5.80;5.20;;;;;;;19.75;62.37;95073.22;5055183;28;20489;-82
2023/09/13 00:35:35;;;;;;;5.27;4.77;;;;;;;19.67;62.51;95082.09;5019733;28;20561;-81
2023/09/13 00:38:02;;;;;;;6.30;5.70;;;;;;;19.68;62.45;95083.75;5035946;28;20930;-82
2023/09/13 00:40:30;;;;;;;7.77;5.23;;;;;;;19.59;62.84;95084.81;5054754;28;20518;-81
2023/09/13 00:42:59;;;;;;;6.40;5.80;;;;;;;19.40;62.99;95086.16;5054724;28;20440;-81
2023/09/13 00:45:26;;;;;;;5.37;4.87;;;;;;;19.27;63.67;95085.06;5054209;28;20884;-82
2023/09/13 00:47:53;;;;;;;7.00;4.70;;;;;;;19.28;63.15;95094.72;5054378;28;20468;-81
2023/09/13 00:50:20;;;;;;;8.43;5.43;;;;;;;19.32;64.38;95094.16;5054590;28;20447;-82
2023/09/13 00:52:48;;;;;;;5.50;5.00;;;;;;;19.45;63.55;95089.09;5054319;28;20506;-81
2023/09/13 00:55:17;;;;;;;7.93;5.80;;;;;;;19.58;63.18;95096.47;5054473;28;20998;-81
2023/09/13 00:57:46;;;;;;;15.50;5.50;;;;;;;19.65;63.13;95093.91;5035577;28;20445;-81
2023/09/13 01:00:14;;;;;;;6.20;5.40;;;;;;;19.59;62.45;95098.13;5019452;28;20502;-81
2023/09/13 01:02:42;;;;;;;4.97;4.40;;;;;;;19.53;63.10;95092.69;5054225;28;20449;-81
2023/09/13 01:05:11;;;;;;;4.93;4.40;;;;;;;19.47;63.41;95091.56;5054603;28;20439;-81
2023/09/13 01:07:40;;;;;;;4.77;4.30;;;;;;;19.44;63.60;95087.44;5054251;28;20537;-82
2023/09/13 01:10:07;;;;;;;8.40;5.20;;;;;;;19.40;62.91;95094.13;5054331;28;20451;-81
2023/09/13 01:12:34;;;;;;;8.47;4.70;;;;;;;19.32;63.33;95091.50;5053960;28;20477;-82
2023/09/13 01:15:06;;;;;;;4.97;4.43;;;;;;;19.20;63.85;95092.94;5018699;28;20479;-81
2023/09/13 01:17:40;;;;;;;7.03;5.23;;;;;;;19.19;63.34;95096.63;5057544;28;20940;-81
2023/09/13 01:20:13;;;;;;;5.27;3.87;;;;;;;19.17;63.20;95094.13;5060812;28;20448;-81
2023/09/13 01:23:12;;;;;;;6.33;4.60;;;;;;;19.17;63.50;95095.97;5057742;28;20443;-82
2023/09/13 01:26:02;;;;;;;5.23;4.43;;;;;;;19.06;62.99;95088.38;5053740;28;20494;-82
2023/09/13 01:28:42;;;;;;;7.13;5.30;;;;;;;18.99;64.08;95088.28;5053402;28;20447;-81
2023/09/13 01:31:10;;;;;;;6.80;4.97;;;;;;;18.96;63.53;95091.28;5034801;28;21008;-82
2023/09/13 01:33:38;;;;;;;5.07;4.57;;;;;;;18.95;63.75;95086.97;5019099;28;20452;-81
2023/09/13 01:36:05;;;;;;;4.60;4.20;;;;;;;18.81;64.65;95085.09;5053587;28;20499;-81
2023/09/13 01:38:32;;;;;;;8.73;5.07;;;;;;;18.76;64.47;95090.06;5053709;28;20445;-82
2023/09/13 01:41:05;;;;;;;10.97;6.00;;;;;;;18.69;65.31;95095.28;5053865;28;20442;-81
2023/09/13 01:43:33;;;;;;;5.30;4.30;;;;;;;18.57;64.87;95088.66;5053383;28;20438;-82
2023/09/13 01:46:02;;;;;;;11.00;5.13;;;;;;;18.60;65.15;95087.50;5053318;28;20450;-81
2023/09/13 01:48:30;;;;;;;7.53;4.80;;;;;;;18.60;64.92;95096.28;5052998;28;20451;-80
2023/09/13 01:50:58;;;;;;;5.30;4.80;;;;;;;18.63;65.50;95095.16;5053560;28;20954;-81
2023/09/13 01:53:25;;;;;;;6.27;4.43;;;;;;;18.52;64.94;95097.16;5053183;28;20481;-81
2023/09/13 01:55:52;;;;;;;5.60;4.50;;;;;;;18.66;65.73;95097.44;5033416;28;20483;-82
2023/09/13 01:58:18;;;;;;;6.40;4.83;;;;;;;18.80;65.04;95099.38;5053123;28;21160;-81
2023/09/13 02:00:45;;;;;;;9.97;5.20;;;;;;;18.84;64.90;95101.50;5053071;28;20465;-82
2023/09/13 02:03:13;;;;;;;8.87;5.87;;;;;;;18.89;64.40;95095.66;5052764;28;20438;-82
2023/09/13 02:05:41;;;;;;;9.43;5.40;;;;;;;18.89;64.07;95093.00;5052689;28;20453;-81
2023/09/13 02:08:08;;;;;;;5.50;4.43;;;;;;;18.96;63.91;95093.94;5052943;28;20454;-82
2023/09/13 02:10:35;;;;;;;5.10;4.40;;;;;;;18.85;64.23;95094.34;5052505;28;20450;-81
2023/09/13 02:13:02;;;;;;;5.93;4.97;;;;;;;18.91;63.44;95093.66;5052765;28;20445;-82
2023/09/13 02:15:29;;;;;;;5.97;5.33;;;;;;;18.86;64.31;95096.00;5052499;28;20489;-82
2023/09/13 02:17:58;;;;;;;6.13;5.33;;;;;;;18.93;63.95;95096.97;5052553;28;20446;-81
2023/09/13 02:20:26;;;;;;;6.00;4.67;;;;;;;18.96;64.07;95093.94;5052635;28;20448;-81
2023/09/13 02:22:53;;;;;;;9.20;4.90;;;;;;;19.02;63.57;95101.22;5053002;28;20802;-81
2023/09/13 02:25:19;;;;;;;7.20;4.93;;;;;;;19.08;63.57;95097.88;5052825;28;20933;-81
2023/09/13 02:27:46;;;;;;;6.60;4.73;;;;;;;18.75;64.33;95094.56;5052633;28;20446;-81
2023/09/13 02:30:13;;;;;;;7.47;5.97;;;;;;;18.57;64.98;95099.31;5052399;28;20441;-82
2023/09/13 02:32:43;;;;;;;12.03;4.80;;;;;;;18.13;66.93;95088.34;5052527;28;20440;-81
2023/09/13 02:35:13;;;;;;;6.70;5.00;;;;;;;18.07;67.67;95089.88;5052384;28;20482;-81
2023/09/13 02:37:41;;;;;;;9.37;5.33;;;;;;;17.93;68.47;95094.06;5052521;28;20960;-81
2023/09/13 02:40:09;;;;;;;8.13;6.00;;;;;;;17.80;68.04;95091.09;5052404;28;20464;-81
2023/09/13 02:42:37;;;;;;;9.60;5.30;;;;;;;17.60;69.41;95097.72;5052281;28;20444;-81
2023/09/13 02:45:04;;;;;;;8.13;5.43;;;;;;;17.68;69.52;95092.47;5052569;28;20456;-81
2023/09/13 02:47:31;;;;;;;9.27;5.60;;;;;;;17.75;68.81;95097.91;5052244;28;20445;-81
2023/09/13 02:49:59;;;;;;;8.03;5.23;;;;;;;17.61;69.36;95104.69;5052419;28;20433;-81
2023/09/13 02:52:32;;;;;;;10.13;5.57;;;;;;;17.88;69.30;95107.00;5052338;28;20445;-82
2023/09/13 02:55:06;;;;;;;7.70;4.93;;;;;;;18.16;68.39;95110.06;5052023;28;20517;-82
2023/09/13 02:57:36;;;;;;;8.33;5.57;;;;;;;18.39;67.74;95107.50;5017152;28;20492;-81
2023/09/13 03:00:04;;;;;;;6.87;5.30;;;;;;;18.59;66.93;95118.56;5052044;28;20898;-81
2023/09/13 03:02:31;;;;;;;7.53;6.00;;;;;;;18.73;65.85;95115.19;5017956;28;20449;-81
2023/09/13 03:05:10;;;;;;;8.10;6.57;;;;;;;18.86;65.57;95126.09;5051957;28;20473;-81
2023/09/13 03:07:36;;;;;;;6.70;5.50;;;;;;;18.93;65.17;95120.06;5051773;28;20534;-81
2023/09/13 03:10:05;;;;;;;5.80;5.20;;;;;;;18.98;65.14;95120.38;5016951;28;20448;-81
2023/09/13 03:12:33;;;;;;;6.00;5.17;;;;;;;19.00;65.46;95123.66;5051489;28;20540;-81
2023/09/13 03:15:05;;;;;;;11.60;6.10;;;;;;;18.98;64.60;95128.34;5051884;28;20522;-81
2023/09/13 03:17:33;;;;;;;7.80;5.40;;;;;;;18.95;65.15;95121.53;5051936;28;20829;-81
2023/09/13 03:20:00;;;;;;;6.93;5.20;;;;;;;18.92;65.76;95129.03;5016805;28;20452;-81
2023/09/13 03:22:27;;;;;;;9.93;5.33;;;;;;;18.81;65.14;95130.28;5051642;28;20444;-81
2023/09/13 03:24:54;;;;;;;5.90;5.30;;;;;;;18.85;65.68;95128.94;5051771;28;21048;-81
2023/09/13 03:27:22;;;;;;;7.53;5.67;;;;;;;18.88;65.18;95125.91;5053571;28;20442;-81
2023/09/13 03:29:49;;;;;;;10.17;5.60;;;;;;;18.86;66.04;95131.41;5051779;28;20439;-81
2023/09/13 03:32:17;;;;;;;4.93;4.37;;;;;;;18.82;65.78;95134.59;5051968;28;20442;-81
2023/09/13 03:34:44;;;;;;;5.90;5.40;;;;;;;18.78;65.52;95134.09;5051271;28;20494;-81
2023/09/13 03:37:11;;;;;;;4.63;4.10;;;;;;;18.78;66.00;95135.91;5051783;28;20442;-82
2023/09/13 03:39:38;;;;;;;7.23;4.90;;;;;;;18.75;65.86;95136.28;5051616;28;20481;-81
2023/09/13 03:42:05;;;;;;;9.93;4.80;;;;;;;18.72;65.53;95139.28;5052164;28;20440;-82
2023/09/13 03:44:33;;;;;;;6.80;4.97;;;;;;;18.60;66.01;95136.16;5051613;28;20521;-80
2023/09/13 03:47:00;;;;;;;5.57;4.70;;;;;;;18.56;66.33;95133.03;5049483;28;20465;-81
2023/09/13 03:49:27;;;;;;;6.10;4.90;;;;;;;18.53;66.19;95130.72;5043905;28;20469;-81
2023/09/13 03:51:54;;;;;;;8.10;5.40;;;;;;;18.53;66.66;95130.72;5051485;28;20441;-81
2023/09/13 03:54:20;;;;;;;8.73;6.10;;;;;;;18.50;66.77;95128.41;5051754;28;20442;-81
2023/09/13 03:56:47;;;;;;;6.70;5.70;;;;;;;18.51;66.79;95132.72;5051612;28;20485;-82
2023/09/13 03:59:14;;;;;;;12.03;6.77;;;;;;;18.47;67.37;95126.06;5051675;28;20449;-80
2023/09/13 04:01:42;;;;;;;11.60;6.80;;;;;;;18.43;66.45;95129.25;5051561;28;20446;-80
2023/09/13 04:04:09;;;;;;;8.93;6.67;;;;;;;18.35;66.75;95132.78;5051525;28;20465;-79
2023/09/13 04:06:36;;;;;;;7.60;5.77;;;;;;;18.14;68.13;95138.63;5051744;28;20441;-80
2023/09/13 04:09:03;;;;;;;11.70;7.20;;;;;;;17.99;68.16;95134.22;5051306;28;20446;-80
2023/09/13 04:11:30;;;;;;;13.97;6.30;;;;;;;17.80;69.32;95130.91;5032581;28;20504;-79
2023/09/13 04:13:57;;;;;;;11.03;6.60;;;;;;;17.77;69.78;95133.06;5051825;28;20453;-80
2023/09/13 04:16:24;;;;;;;7.50;6.20;;;;;;;17.72;69.43;95133.59;5051389;28;20910;-80
2023/09/13 04:18:52;;;;;;;9.73;6.50;;;;;;;17.69;70.06;95135.75;5052223;28;20911;-79
2023/09/13 04:21:19;;;;;;;10.20;6.63;;;;;;;17.61;70.19;95145.31;5055444;28;20908;-80
2023/09/13 04:23:46;;;;;;;7.00;6.23;;;;;;;17.62;70.76;95131.06;5036697;28;20438;-79
2023/09/13 04:26:19;;;;;;;6.37;5.77;;;;;;;17.61;70.36;95139.19;5055192;28;20818;-79
2023/09/13 04:28:45;;;;;;;6.73;5.07;;;;;;;17.55;70.67;95135.38;5055330;28;20445;-78
2023/09/13 04:31:12;;;;;;;9.00;5.70;;;;;;;17.49;70.87;95138.72;5055240;28;20440;-79
2023/09/13 04:33:49;;;;;;;10.30;6.63;;;;;;;17.51;71.35;95135.88;5055804;28;20453;-81
2023/09/13 04:36:17;;;;;;;7.33;6.43;;;;;;;17.63;71.03;95137.19;5055552;28;20900;-81
2023/09/13 04:38:44;;;;;;;9.00;6.77;;;;;;;17.70;70.37;95137.41;5055332;28;20838;-78
2023/09/13 04:41:14;;;;;;;9.07;5.73;;;;;;;17.72;70.43;95135.41;5036445;28;20436;-76
2023/09/13 04:43:41;;;;;;;5.83;4.80;;;;;;;17.77;69.77;95133.91;5055297;28;20449;-76
2023/09/13 04:46:08;;;;;;;6.83;6.00;;;;;;;17.85;69.80;95135.72;5054985;28;20437;-76
2023/09/13 04:48:35;;;;;;;19.00;6.17;;;;;;;17.91;69.72;95138.53;5055152;28;20438;-76
2023/09/13 04:51:04;;;;;;;8.43;5.93;;;;;;;17.98;69.65;95137.88;5055225;28;20448;-76
2023/09/13 04:53:33;;;;;;;10.83;6.40;;;;;;;18.08;68.97;95143.81;5055214;28;20453;-78
2023/09/13 04:56:00;;;;;;;8.57;6.43;;;;;;;18.17;68.92;95146.25;5054936;28;20490;-76
2023/09/13 04:58:27;;;;;;;15.23;7.47;;;;;;;18.47;71.77;95142.00;5020250;28;20532;-77
2023/09/13 05:00:54;;;;;;;10.97;6.80;;;;;;;19.17;67.63;95144.69;5055179;28;20444;-78
2023/09/13 05:03:21;;;;;;;15.50;7.47;;;;;;;19.61;65.77;95145.88;5055040;28;20450;-78
2023/09/13 05:05:47;;;;;;;13.77;6.77;;;;;;;19.94;64.46;95141.09;5055149;28;20448;-77
2023/09/13 05:08:15;;;;;;;8.73;7.13;;;;;;;20.13;63.63;95145.91;5054716;28;20451;-78
2023/09/13 05:10:45;;;;;;;12.97;8.43;;;;;;;20.44;62.17;95145.75;5020959;28;20456;-77
2023/09/13 05:13:13;;;;;;;10.70;6.80;;;;;;;20.70;60.96;95150.59;5057937;28;20490;-77
2023/09/13 05:15:44;;;;;;;12.73;6.70;;;;;;;21.02;59.42;95144.84;5074016;28;20521;-77
2023/09/13 05:18:11;;;;;;;7.80;5.90;;;;;;;21.38;57.81;95146.69;5071585;28;20852;-78
2023/09/13 05:20:38;;;;;;;11.60;6.97;;;;;;;21.62;56.81;95148.16;5065012;28;20465;-78
2023/09/13 05:23:05;;;;;;;7.77;6.03;;;;;;;21.70;56.33;95145.38;5075504;28;20433;-79
2023/09/13 05:25:33;;;;;;;13.33;7.17;;;;;;;22.00;55.88;95140.69;5064916;28;20532;-79
2023/09/13 05:28:02;;;;;;;11.50;6.13;;;;;;;22.27;54.42;95138.22;5071859;28;20470;-78
2023/09/13 05:30:32;;;;;;;7.20;5.30;;;;;;;22.45;53.80;95138.53;5058918;28;20817;-79
2023/09/13 05:32:59;;;;;;;10.00;6.30;;;;;;;22.54;53.72;95142.69;5054401;28;20473;-78
2023/09/13 05:35:26;;;;;;;9.07;6.70;;;;;;;22.77;53.46;95145.91;5062302;28;20525;-78
2023/09/13 05:37:52;;;;;;;9.33;5.77;;;;;;;22.97;52.41;95148.69;5064035;28;20466;-78
2023/09/13 05:40:19;;;;;;;8.57;5.67;;;;;;;23.10;52.31;95148.72;5054239;28;20451;-79
2023/09/13 05:42:46;;;;;;;9.97;5.10;;;;;;;23.34;52.11;95151.91;5053249;28;20453;-78
2023/09/13 05:45:14;;;;;;;14.00;6.83;;;;;;;23.40;50.60;95151.91;5051463;28;20457;-78
2023/09/13 05:47:41;;;;;;;7.27;6.33;;;;;;;23.46;50.64;95142.25;5053675;28;20459;-78
2023/09/13 05:50:08;;;;;;;9.57;6.30;;;;;;;23.17;50.25;95140.75;5053652;28;20450;-78
2023/09/13 05:52:37;;;;;;;8.83;6.90;;;;;;;22.82;51.83;95135.44;5053773;28;20443;-78
2023/09/13 05:55:04;;;;;;;10.13;7.40;;;;;;;22.77;52.91;95137.03;5051370;28;20437;-78
2023/09/13 05:57:31;;;;;;;13.13;6.70;;;;;;;23.02;53.50;95143.56;5017151;28;20476;-79
2023/09/13 05:59:58;;;;;;;9.70;7.63;;;;;;;23.08;53.29;95140.06;5031132;28;20429;-78
2023/09/13 06:02:26;;;;;;;12.23;7.30;;;;;;;23.30;53.23;95137.25;5033107;28;20986;-78
2023/09/13 06:04:53;;;;;;;11.27;7.00;;;;;;;23.49;52.02;95133.81;5032847;28;20450;-78
2023/09/13 06:07:19;;;;;;;14.13;6.50;;;;;;;23.62;50.59;95130.34;5033422;28;20471;-79
2023/09/13 06:09:47;;;;;;;8.50;7.03;;;;;;;23.64;50.67;95137.16;5032853;28;20467;-78
2023/09/13 06:12:14;;;;;;;11.90;6.90;;;;;;;23.76;50.92;95137.38;5032931;28;21074;-79
2023/09/13 06:14:41;;;;;;;15.47;6.73;;;;;;;23.84;50.94;95134.50;5032677;28;20922;-78
2023/09/13 06:17:07;;;;;;;11.23;6.63;;;;;;;24.01;50.23;95137.59;5032776;28;20489;-79
2023/09/13 06:19:36;;;;;;;8.63;6.80;;;;;;;24.11;49.63;95140.66;5033130;28;20447;-78
2023/09/13 06:22:03;;;;;;;10.87;6.57;;;;;;;24.30;48.62;95133.69;5032891;28;20938;-78
2023/09/13 06:24:30;;;;;;;10.50;7.47;;;;;;;24.34;48.59;95146.47;5033200;28;20679;-78
2023/09/13 06:26:56;;;;;;;9.20;6.73;;;;;;;24.46;48.85;95141.28;5032669;28;20444;-78
2023/09/13 06:29:23;;;;;;;13.87;6.93;;;;;;;24.55;49.18;95147.22;5032806;28;20808;-78
2023/09/13 06:31:50;;;;;;;7.00;6.40;;;;;;;24.40;48.99;95144.78;5032198;28;20444;-78
2023/09/13 06:34:17;;;;;;;6.67;6.07;;;;;;;24.29;49.16;95146.25;5045076;28;20537;-78
2023/09/13 06:36:45;;;;;;;7.00;6.40;;;;;;;24.29;49.27;95146.25;5052302;28;20484;-79
2023/09/13 06:39:12;;;;;;;10.20;6.30;;;;;;;24.37;49.54;95140.69;5052411;28;20453;-79
2023/09/13 06:41:39;;;;;;;8.07;6.53;;;;;;;24.35;48.76;95144.59;5051828;28;20445;-79
2023/09/13 06:44:09;;;;;;;13.07;7.00;;;;;;;24.49;49.63;95148.91;5052242;28;20815;-80
2023/09/13 06:46:36;;;;;;;6.97;6.27;;;;;;;24.66;49.24;95149.28;5051976;28;20440;-80
2023/09/13 06:49:03;;;;;;;13.47;5.80;;;;;;;24.68;48.41;95153.41;5052527;28;20808;-80
2023/09/13 06:51:32;;;;;;;8.53;6.20;;;;;;;24.54;47.82;95151.78;5052044;28;20445;-80
2023/09/13 06:54:00;;;;;;;12.43;6.03;;;;;;;24.62;48.00;95154.25;5052288;28;20452;-80
2023/09/13 06:56:27;;;;;;;10.93;6.60;;;;;;;24.56;47.25;95155.06;5052175;28;20496;-79
2023/09/13 06:58:54;;;;;;;8.47;6.20;;;;;;;24.66;47.64;95152.78;5051923;28;20445;-79
2023/09/13 07:01:20;;;;;;;12.60;6.10;;;;;;;24.93;48.90;95148.16;5052310;28;20452;-80
2023/09/13 07:03:47;;;;;;;9.47;6.27;;;;;;;25.12;47.29;95154.50;5051645;28;20555;-80
2023/09/13 07:06:14;;;;;;;7.83;6.53;;;;;;;24.97;45.67;95156.63;5016366;28;20473;-80
2023/09/13 07:08:41;;;;;;;13.43;6.00;;;;;;;24.64;47.36;95152.19;5051792;28;20452;-79
2023/09/13 07:11:09;;;;;;;6.77;5.63;;;;;;;24.79;47.84;95154.59;5051876;28;20477;-79
2023/09/13 07:13:36;;;;;;;13.70;6.30;;;;;;;24.90;47.60;95151.28;5051741;28;20483;-80
2023/09/13 07:16:03;;;;;;;9.97;6.60;;;;;;;25.22;46.64;95151.38;5052141;28;20586;-80
2023/09/13 07:18:29;;;;;;;7.00;6.10;;;;;;;25.51;46.43;95142.75;5051952;28;20458;-80
2023/09/13 07:20:56;;;;;;;9.57;6.30;;;;;;;25.61;44.98;95142.25;5033014;28;20499;-80
2023/09/13 07:23:23;;;;;;;7.53;6.77;;;;;;;25.77;45.72;95152.53;5051674;28;20815;-79
2023/09/13 07:25:50;;;;;;;7.73;6.73;;;;;;;25.96;44.89;95144.50;5032995;28;20449;-80
2023/09/13 07:28:18;;;;;;;10.43;6.10;;;;;;;26.17;44.22;95146.81;5052197;28;20434;-80
2023/09/13 07:30:45;;;;;;;9.83;5.80;;;;;;;26.42;43.34;95150.34;5032839;28;20803;-80
2023/09/13 07:33:12;;;;;;;6.90;5.60;;;;;;;26.45;41.78;95151.78;5051871;28;20434;-80
2023/09/13 07:35:38;;;;;;;9.33;5.90;;;;;;;26.58;41.39;95148.13;5051510;28;20450;-80
2023/09/13 07:38:05;;;;;;;10.07;6.37;;;;;;;26.69;40.73;95144.72;5051755;28;20444;-79
2023/09/13 07:40:32;;;;;;;12.00;5.53;;;;;;;26.80;41.26;95147.47;5051223;28;20939;-80
2023/09/13 07:42:59;;;;;;;6.60;5.80;;;;;;;26.92;40.74;95147.56;5051884;28;20445;-80
2023/09/13 07:45:31;;;;;;;7.00;5.00;;;;;;;26.96;40.18;95140.66;5051763;28;20495;-80
2023/09/13 07:47:59;;;;;;;9.07;5.10;;;;;;;27.05;39.69;95139.34;5051437;28;20447;-80
2023/09/13 07:50:31;;;;;;;6.20;5.57;;;;;;;27.16;40.72;95135.88;5051794;28;20452;-80
2023/09/13 07:52:58;;;;;;;10.77;5.40;;;;;;;27.04;39.99;95137.69;5051550;28;20515;-79
2023/09/13 07:55:25;;;;;;;11.43;6.07;;;;;;;27.04;39.37;95132.31;5054528;28;20931;-80
2023/09/13 07:57:52;;;;;;;7.53;6.33;;;;;;;27.07;39.75;95137.22;5055763;28;20867;-80
2023/09/13 08:00:19;;;;;;;10.43;4.83;;;;;;;27.07;41.08;95131.84;5055352;28;20441;-80
2023/09/13 08:02:48;;;;;;;6.53;5.03;;;;;;;27.32;40.31;95128.22;5055438;28;20495;-80
2023/09/13 08:05:15;;;;;;;12.37;5.80;;;;;;;27.20;39.56;95130.06;5055526;28;20854;-81
2023/09/13 08:07:42;;;;;;;10.50;6.10;;;;;;;27.26;41.48;95129.13;5054961;28;20453;-80
2023/09/13 08:10:09;;;;;;;6.40;5.80;;;;;;;27.46;40.26;95126.97;5055514;28;20503;-80
2023/09/13 08:12:36;;;;;;;10.77;6.40;;;;;;;27.59;40.34;95128.66;5054750;28;20469;-80
2023/09/13 08:15:04;;;;;;;7.70;6.10;;;;;;;27.72;39.50;95132.00;5055151;28;20939;-80
2023/09/13 08:17:31;;;;;;;9.40;5.87;;;;;;;27.74;39.05;95127.22;5036318;28;20508;-80
2023/09/13 08:20:00;;;;;;;8.23;5.87;;;;;;;27.66;39.43;95118.63;5055135;28;20448;-80
2023/09/13 08:22:26;;;;;;;15.37;6.60;;;;;;;27.45;39.87;95120.75;5054723;28;20982;-80
2023/09/13 08:24:53;;;;;;;8.63;6.57;;;;;;;27.12;40.20;95123.91;5054919;28;20848;-80
2023/09/13 08:27:20;;;;;;;8.87;5.33;;;;;;;27.31;40.44;95118.50;5055124;28;20797;-79
2023/09/13 08:29:47;;;;;;;12.07;6.10;;;;;;;27.53;39.60;95116.94;5054658;28;20491;-80
2023/09/13 08:32:14;;;;;;;12.07;6.57;;;;;;;27.64;39.27;95120.75;5054604;28;20516;-80
2023/09/13 08:34:40;;;;;;;12.20;7.03;;;;;;;27.63;38.38;95114.53;5054776;28;20453;-80
2023/09/13 08:37:08;;;;;;;11.23;6.63;;;;;;;27.26;39.59;95111.09;5054660;28;20489;-80
2023/09/13 08:39:36;;;;;;;8.27;6.67;;;;;;;27.41;40.21;95110.66;5035988;28;20449;-80
2023/09/13 08:42:02;;;;;;;9.90;6.10;;;;;;;27.58;39.49;95114.38;5054672;28;20465;-80
2023/09/13 08:44:31;;;;;;;10.80;6.53;;;;;;;27.59;38.59;95113.31;5054535;28;20448;-80
2023/09/13 08:47:00;;;;;;;14.30;6.20;;;;;;;27.81;39.56;95110.13;5054484;28;20453;-80
2023/09/13 08:49:27;;;;;;;7.47;5.60;;;;;;;27.87;38.11;95115.41;5054283;28;20446;-80
2023/09/13 08:51:55;;;;;;;7.60;6.00;;;;;;;28.05;38.66;95104.53;5054295;28;20877;-80
2023/09/13 08:54:24;;;;;;;13.57;6.63;;;;;;;28.20;37.78;95108.63;5054485;28;20437;-80
2023/09/13 08:56:51;;;;;;;10.00;6.63;;;;;;;28.15;37.39;95103.13;5035121;28;20482;-80
2023/09/13 08:59:18;;;;;;;11.37;5.70;;;;;;;28.18;37.52;95100.78;5054150;28;20430;-80
2023/09/13 09:01:49;;;;;;;9.03;5.50;;;;;;;28.17;37.18;95104.53;5054140;28;20441;-80
2023/09/13 09:04:17;;;;;;;8.20;5.40;;;;;;;28.22;36.39;95101.94;5054143;28;20470;-80
2023/09/13 09:06:44;;;;;;;12.80;5.83;;;;;;;28.21;37.21;95100.31;5054281;28;20775;-80
2023/09/13 09:09:12;;;;;;;10.87;5.50;;;;;;;28.15;35.14;95095.03;5054187;28;20445;-80
2023/09/13 09:11:43;;;;;;;11.77;5.57;;;;;;;28.10;35.85;95098.44;5053798;28;20469;-80
2023/09/13 09:14:12;;;;;;;12.70;5.67;;;;;;;28.24;36.29;95089.06;5054121;28;20442;-82
2023/09/13 09:16:41;;;;;;;13.43;5.90;;;;;;;28.14;35.67;95093.38;5053949;28;20512;-80
2023/09/13 09:19:09;;;;;;;13.33;5.23;;;;;;;28.21;35.31;95094.09;5054069;28;20488;-81
2023/09/13 09:21:37;;;;;;;8.93;6.03;;;;;;;28.17;36.21;95090.22;5053859;28;20819;-80
2023/09/13 09:24:04;;;;;;;8.83;4.80;;;;;;;28.12;35.81;95092.81;5054541;28;20438;-81
2023/09/13 09:26:31;;;;;;;7.97;5.50;;;;;;;28.14;35.83;95094.22;5054046;28;20517;-81
2023/09/13 09:29:10;;;;;;;11.30;5.60;;;;;;;28.15;35.23;95098.56;5054047;28;20438;-80
2023/09/13 09:31:38;;;;;;;10.80;4.70;;;;;;;28.17;36.33;95098.31;5053527;28;20966;-81
2023/09/13 09:34:05;;;;;;;7.67;5.27;;;;;;;28.26;36.33;95092.34;5053695;28;20491;-80
2023/09/13 09:36:39;;;;;;;5.60;5.07;;;;;;;28.20;34.89;95087.03;5053497;28;20452;-81
2023/09/13 09:39:06;;;;;;;5.20;4.70;;;;;;;28.09;35.80;95091.41;5053591;28;20459;-81
2023/09/13 09:41:34;;;;;;;8.07;5.07;;;;;;;28.27;37.45;95094.00;5053217;28;20950;-81
2023/09/13 09:44:01;;;;;;;7.90;4.53;;;;;;;28.36;35.92;95087.22;5053425;28;20656;-80
2023/09/13 09:46:29;;;;;;;11.53;5.37;;;;;;;28.41;36.89;95078.41;5053235;28;20932;-80
2023/09/13 09:48:56;;;;;;;10.63;5.10;;;;;;;28.42;36.85;95080.03;5034699;28;20433;-80
2023/09/13 09:51:23;;;;;;;7.77;5.10;;;;;;;28.57;36.98;95074.13;5053479;28;20445;-81
2023/09/13 09:53:51;;;;;;;8.10;5.53;;;;;;;28.66;35.93;95070.84;5053723;28;20441;-81
2023/09/13 09:56:17;;;;;;;9.27;6.40;;;;;;;28.59;35.29;95070.13;5053783;28;20437;-80
2023/09/13 09:58:46;;;;;;;6.20;5.60;;;;;;;28.36;36.98;95064.78;5053829;28;20481;-80
2023/09/13 10:01:16;;;;;;;9.27;4.83;;;;;;;28.47;36.76;95068.53;5053387;28;20837;-80
2023/09/13 10:03:44;;;;;;;6.63;5.10;;;;;;;28.61;36.20;95065.31;5053149;28;20804;-80
2023/09/13 10:06:13;;;;;;;5.43;4.93;;;;;;;28.75;36.03;95065.06;5053310;28;20446;-80
2023/09/13 10:08:41;;;;;;;6.67;5.33;;;;;;;28.68;36.73;95057.09;5053122;28;20536;-80
2023/09/13 10:11:09;;;;;;;22.97;5.13;;;;;;;28.67;36.67;95058.97;5034203;28;20465;-81
2023/09/13 10:13:37;;;;;;;9.17;5.50;;;;;;;28.56;36.37;95048.19;5052991;28;20448;-81
2023/09/13 10:16:07;;;;;;;8.10;5.10;;;;;;;28.40;37.18;95048.94;5052876;28;20445;-79
2023/09/13 10:18:38;;;;;;;7.20;6.47;;;;;;;28.43;35.75;95043.06;5052374;28;20851;-80
2023/09/13 10:21:07;;;;;;;6.60;5.20;;;;;;;28.57;35.57;95047.13;5052552;28;20484;-80
2023/09/13 10:23:40;;;;;;;8.63;5.47;;;;;;;28.61;36.12;95045.59;5062988;28;20460;-79
2023/09/13 10:26:09;;;;;;;9.17;5.43;;;;;;;28.51;38.41;95034.59;5047578;28;20469;-79
2023/09/13 10:28:39;;;;;;;6.70;5.43;;;;;;;28.50;38.10;95032.94;5072069;28;20488;-80
2023/09/13 10:31:12;;;;;;;9.50;5.67;;;;;;;28.17;38.17;95033.53;5063780;28;20482;-80
2023/09/13 10:33:44;;;;;;;8.17;4.77;;;;;;;28.08;38.70;95033.91;5052959;28;20503;-80
2023/09/13 10:36:21;;;;;;;8.73;5.80;;;;;;;28.00;37.89;95033.41;5050825;28;20518;-79
2023/09/13 10:38:56;;;;;;;8.07;5.70;;;;;;;27.90;38.50;95035.88;5032296;28;20518;-79
2023/09/13 10:41:23;;;;;;;6.67;4.70;;;;;;;27.99;38.65;95031.78;4991843;28;20527;-78
2023/09/13 10:43:51;;;;;;;9.40;4.97;;;;;;;28.08;39.22;95022.28;5051931;28;20832;-79
2023/09/13 10:46:18;;;;;;;7.03;5.27;;;;;;;28.19;39.76;95026.84;5048005;28;20457;-79
2023/09/13 10:48:46;;;;;;;11.80;4.93;;;;;;;28.33;39.78;95025.56;5017402;28;20457;-78
2023/09/13 10:51:16;;;;;;;8.80;5.87;;;;;;;28.11;38.62;95018.31;5017829;28;20446;-79
2023/09/13 10:53:45;;;;;;;5.80;5.30;;;;;;;28.09;38.18;95021.25;5052653;28;20449;-79
2023/09/13 10:56:15;;;;;;;6.93;4.00;;;;;;;28.24;38.25;95021.59;5052751;28;20448;-79
2023/09/13 10:58:45;;;;;;;18.63;5.17;;;;;;;28.35;36.89;95014.56;5017364;28;20493;-79
2023/09/13 11:01:13;;;;;;;12.60;6.53;;;;;;;28.44;37.15;95002.31;5052312;28;20481;-79
2023/09/13 11:03:41;;;;;;;11.20;5.10;;;;;;;28.44;36.81;94998.81;5052723;28;20533;-80
2023/09/13 11:06:09;;;;;;;5.40;4.93;;;;;;;28.47;37.24;95004.53;5052328;28;20912;-79
2023/09/13 11:08:37;;;;;;;5.13;4.50;;;;;;;28.49;38.46;94998.91;5052481;28;20915;-80
2023/09/13 11:11:09;;;;;;;9.00;4.70;;;;;;;28.57;37.06;95003.91;5052160;28;20474;-79
2023/09/13 11:13:36;;;;;;;9.27;5.20;;;;;;;28.65;36.76;94996.28;5052588;28;20527;-80
2023/09/13 11:16:04;;;;;;;8.00;5.30;;;;;;;28.81;37.22;95002.78;5052598;28;20446;-79
2023/09/13 11:18:32;;;;;;;11.83;5.17;;;;;;;28.80;37.20;95000.34;5052586;28;20485;-79
2023/09/13 11:20:59;;;;;;;16.40;5.20;;;;;;;28.83;37.57;94992.56;5052449;28;20552;-79
2023/09/13 11:23:26;;;;;;;7.77;5.20;;;;;;;28.97;36.65;94988.56;5052483;28;20936;-79
2023/09/13 11:25:57;;;;;;;7.83;5.03;;;;;;;28.99;35.23;94989.13;5052524;28;20441;-80
2023/09/13 11:28:44;;;;;;;13.30;5.60;;;;;;;29.03;36.66;94975.13;5019301;28;20777;-79
2023/09/13 11:31:13;;;;;;;18.27;5.07;;;;;;;28.86;37.92;94984.00;5056579;28;20526;-79
2023/09/13 11:33:46;;;;;;;4.60;4.20;;;;;;;28.98;36.97;94974.00;5056631;28;20442;-80
2023/09/13 11:36:17;;;;;;;9.87;5.00;;;;;;;28.98;36.90;94979.38;5056899;28;20448;-80